Am Tubarao — A8ZA9 — position and weather

sailwx.info

Track history (hours):
 
Tides and Currents Weather Stations Pressure Air Temp Water Temp Dewpoint Dewpoint Depression Visibility Wind Speed Wind Dir Waves Ship Positions

Am Tubarao

Last reported at 2014-Dec-06 15:32 UTC. Time now 2014-Dec-21 15:11 UTC.
Position N 50°29' W 000°06'.
Warning: this ship's position is 14 days out of date.

Length 230 m; draft 9.8 m.

Type: Cargo ship. MMSI: 636015171.

Date/timePositionNaut miles runAvg speedWind from/ knotsBaromVisibWave heightAir tempDewpointWater temp
2014-Dec-06 15:32N 50°29' W 000°06'1616.2
2014-Dec-06 14:33N 50°33' E 000°18'1615.9
2014-Dec-06 13:33N 50°39' E 000°41'1515.0
2014-Dec-06 12:34N 50°47' E 001°01'1413.5
2014-Dec-06 11:33N 50°55' E 001°18'1313.2
2014-Dec-06 10:33N 51°05' E 001°32'1414.2
2014-Dec-06 09:34N 51°16' E 001°47'1716.6
2014-Dec-06 08:34N 51°30' E 002°01'1716.9
2014-Dec-06 07:33N 51°43' E 002°19'7214.4
2014-Dec-06 02:33N 52°31' E 003°46'1111.1
2014-Dec-06 01:33N 52°31' E 004°05'1110.8
2014-Dec-06 00:33N 52°29' E 004°22'8 8.2
2014-Dec-05 23:34N 52°28' E 004°35'0 0.2
2014-Dec-05 22:33N 52°28' E 004°36'0 0.0
2014-Dec-05 21:33N 52°28' E 004°36'0 0.0
2014-Dec-05 20:33N 52°28' E 004°36'0 0.0
2014-Dec-05 19:33N 52°28' E 004°36'0 0.0
2014-Dec-05 18:33N 52°28' E 004°36'0 0.0
2014-Dec-05 17:33N 52°28' E 004°36'0 0.0
2014-Dec-05 16:33N 52°28' E 004°36'0 0.0
2014-Dec-05 15:33N 52°28' E 004°36'0 0.0
2014-Dec-05 14:33N 52°28' E 004°36'0 0.0
2014-Dec-05 13:33N 52°28' E 004°36'0 0.0
2014-Dec-05 12:33N 52°28' E 004°36'0 0.0
2014-Dec-05 11:33N 52°28' E 004°36'0 0.0
2014-Dec-05 10:33N 52°28' E 004°36'0 0.0
2014-Dec-05 09:33N 52°28' E 004°36'0 0.0
2014-Dec-05 08:33N 52°28' E 004°36'0 0.0
2014-Dec-05 07:33N 52°28' E 004°36'0 0.0
2014-Dec-05 06:33N 52°28' E 004°36'0 0.0
2014-Dec-05 05:33N 52°28' E 004°36'0 0.0
2014-Dec-05 04:33N 52°28' E 004°36'0 0.0
2014-Dec-05 03:32N 52°28' E 004°36'0 0.0
2014-Dec-05 02:33N 52°28' E 004°36'0 0.0
2014-Dec-05 01:32N 52°28' E 004°36'0 0.0
2014-Dec-05 00:33N 52°28' E 004°36'0 0.0
2014-Dec-04 23:32N 52°28' E 004°36'0 0.0
2014-Dec-04 22:32N 52°28' E 004°36'0 0.0
2014-Dec-04 21:32N 52°28' E 004°36'0 0.0
2014-Dec-04 20:33N 52°28' E 004°36'0 0.0
2014-Dec-04 19:33N 52°28' E 004°36'0 0.0
2014-Dec-04 18:32N 52°28' E 004°36'1 0.6
2014-Dec-04 17:34N 52°28' E 004°35'9 9.0
2014-Dec-04 16:33N 52°29' E 004°20'7 6.7
2014-Dec-04 15:33N 52°29' E 004°09'8 7.7
2014-Dec-04 14:33N 52°28' E 003°57'6 6.3
2014-Dec-04 13:33N 52°34' E 003°55'6 6.3
2014-Dec-04 12:33N 52°39' E 004°02'51 7.1
2014-Dec-04 05:25N 53°26' E 004°33'8 7.8
2014-Dec-04 04:27N 53°33' E 004°37'8 7.7
2014-Dec-04 03:26N 53°41' E 004°40'8 8.0
2014-Dec-04 02:27N 53°48' E 004°43'8 8.2
2014-Dec-04 01:25N 53°57' E 004°45'7 8.3
2014-Dec-04 00:33N 54°04' E 004°45'18 8.2
2014-Dec-03 22:22N 54°21' E 004°52'276 7.9
2014-Dec-02 11:25N 57°50' E 010°16'9 9.7
2014-Dec-02 10:32N 57°50' E 010°32'9 8.9
2014-Dec-02 09:33N 57°48' E 010°48'1111.1
2014-Dec-02 08:33N 57°40' E 011°03'1212.2
2014-Dec-02 07:33N 57°32' E 011°21'9 9.2
2014-Dec-02 06:33N 57°24' E 011°29'1010.1
2014-Dec-02 05:33N 57°15' E 011°35'10 9.7
2014-Dec-02 04:33N 57°06' E 011°41'9 9.2
2014-Dec-02 03:33N 56°57' E 011°46'9 8.9
2014-Dec-02 02:33N 56°49' E 011°52'8 7.7
2014-Dec-02 01:33N 56°41' E 011°47'12 9.9
2014-Dec-02 00:19N 56°34' E 011°29'19 9.0
2014-Dec-01 22:12N 56°20' E 011°06'1012.0
2014-Dec-01 21:24N 56°10' E 011°06'1212.5
2014-Dec-01 20:27N 55°59' E 011°01'4711.2
2014-Dec-01 16:17N 55°12' E 011°06'1212.5
2014-Dec-01 15:20N 55°00' E 011°01'24 8.3
2014-Dec-01 12:29N 54°37' E 010°57'21 9.2
2014-Dec-01 10:14N 54°31' E 011°31'7 9.5
2014-Dec-01 09:33N 54°28' E 011°41'10 9.6
2014-Dec-01 08:32N 54°26' E 011°57'9 9.0
2014-Dec-01 07:33N 54°28' E 012°12'9 8.9
2014-Dec-01 06:34N 54°36' E 012°18'10 9.7
2014-Dec-01 05:33N 54°42' E 012°32'38 9.4
2014-Dec-01 01:29N 54°58' E 013°32'9 9.5
2014-Dec-01 00:33N 55°01' E 013°47'10 9.6
2014-Nov-30 23:33N 55°04' E 014°02'9 8.9
2014-Nov-30 22:33N 55°10' E 014°13'9 8.8
2014-Nov-30 21:33N 55°17' E 014°23'9 9.1
2014-Nov-30 20:33N 55°24' E 014°33'9 9.0
2014-Nov-30 19:33N 55°29' E 014°46'9 9.0
2014-Nov-30 18:33N 55°33' E 015°00'9 9.2
2014-Nov-30 17:32N 55°37' E 015°15'9 9.3
2014-Nov-30 16:33N 55°39' E 015°31'  
Track history (hours):
 
Tides and Currents Weather Stations Pressure Air Temp Water Temp Dewpoint Dewpoint Depression Visibility Wind Speed Wind Dir Waves Ship Positions

Am Tubarao

Last reported at 2014-Dec-06 15:32 UTC. Time now 2014-Dec-21 15:11 UTC.
Position N 50°29' W 000°06'.
Warning: this ship's position is 14 days out of date.

Length 230 m; draft 9.8 m.

Type: Cargo ship. MMSI: 636015171.

Date/timePositionNaut miles runAvg speedWind from/ knotsBaromVisibWave heightAir tempDewpointWater temp
2014-Dec-06 15:32N 50°29' W 000°06'1616.2
2014-Dec-06 14:33N 50°33' E 000°18'1615.9
2014-Dec-06 13:33N 50°39' E 000°41'1515.0
2014-Dec-06 12:34N 50°47' E 001°01'1413.5
2014-Dec-06 11:33N 50°55' E 001°18'1313.2
2014-Dec-06 10:33N 51°05' E 001°32'1414.2
2014-Dec-06 09:34N 51°16' E 001°47'1716.6
2014-Dec-06 08:34N 51°30' E 002°01'1716.9
2014-Dec-06 07:33N 51°43' E 002°19'7214.4
2014-Dec-06 02:33N 52°31' E 003°46'1111.1
2014-Dec-06 01:33N 52°31' E 004°05'1110.8
2014-Dec-06 00:33N 52°29' E 004°22'8 8.2
2014-Dec-05 23:34N 52°28' E 004°35'0 0.2
2014-Dec-05 22:33N 52°28' E 004°36'0 0.0
2014-Dec-05 21:33N 52°28' E 004°36'0 0.0
2014-Dec-05 20:33N 52°28' E 004°36'0 0.0
2014-Dec-05 19:33N 52°28' E 004°36'0 0.0
2014-Dec-05 18:33N 52°28' E 004°36'0 0.0
2014-Dec-05 17:33N 52°28' E 004°36'0 0.0
2014-Dec-05 16:33N 52°28' E 004°36'0 0.0
2014-Dec-05 15:33N 52°28' E 004°36'0 0.0
2014-Dec-05 14:33N 52°28' E 004°36'0 0.0
2014-Dec-05 13:33N 52°28' E 004°36'0 0.0
2014-Dec-05 12:33N 52°28' E 004°36'0 0.0
2014-Dec-05 11:33N 52°28' E 004°36'0 0.0
2014-Dec-05 10:33N 52°28' E 004°36'0 0.0
2014-Dec-05 09:33N 52°28' E 004°36'0 0.0
2014-Dec-05 08:33N 52°28' E 004°36'0 0.0
2014-Dec-05 07:33N 52°28' E 004°36'0 0.0
2014-Dec-05 06:33N 52°28' E 004°36'0 0.0
2014-Dec-05 05:33N 52°28' E 004°36'0 0.0
2014-Dec-05 04:33N 52°28' E 004°36'0 0.0
2014-Dec-05 03:32N 52°28' E 004°36'0 0.0
2014-Dec-05 02:33N 52°28' E 004°36'0 0.0
2014-Dec-05 01:32N 52°28' E 004°36'0 0.0
2014-Dec-05 00:33N 52°28' E 004°36'0 0.0
2014-Dec-04 23:32N 52°28' E 004°36'0 0.0
2014-Dec-04 22:32N 52°28' E 004°36'0 0.0
2014-Dec-04 21:32N 52°28' E 004°36'0 0.0
2014-Dec-04 20:33N 52°28' E 004°36'0 0.0
2014-Dec-04 19:33N 52°28' E 004°36'0 0.0
2014-Dec-04 18:32N 52°28' E 004°36'1 0.6
2014-Dec-04 17:34N 52°28' E 004°35'9 9.0
2014-Dec-04 16:33N 52°29' E 004°20'7 6.7
2014-Dec-04 15:33N 52°29' E 004°09'8 7.7
2014-Dec-04 14:33N 52°28' E 003°57'6 6.3
2014-Dec-04 13:33N 52°34' E 003°55'6 6.3
2014-Dec-04 12:33N 52°39' E 004°02'51 7.1
2014-Dec-04 05:25N 53°26' E 004°33'8 7.8
2014-Dec-04 04:27N 53°33' E 004°37'8 7.7
2014-Dec-04 03:26N 53°41' E 004°40'8 8.0
2014-Dec-04 02:27N 53°48' E 004°43'8 8.2
2014-Dec-04 01:25N 53°57' E 004°45'7 8.3
2014-Dec-04 00:33N 54°04' E 004°45'18 8.2
2014-Dec-03 22:22N 54°21' E 004°52'276 7.9
2014-Dec-02 11:25N 57°50' E 010°16'9 9.7
2014-Dec-02 10:32N 57°50' E 010°32'9 8.9
2014-Dec-02 09:33N 57°48' E 010°48'1111.1
2014-Dec-02 08:33N 57°40' E 011°03'1212.2
2014-Dec-02 07:33N 57°32' E 011°21'9 9.2
2014-Dec-02 06:33N 57°24' E 011°29'1010.1
2014-Dec-02 05:33N 57°15' E 011°35'10 9.7
2014-Dec-02 04:33N 57°06' E 011°41'9 9.2
2014-Dec-02 03:33N 56°57' E 011°46'9 8.9
2014-Dec-02 02:33N 56°49' E 011°52'8 7.7
2014-Dec-02 01:33N 56°41' E 011°47'12 9.9
2014-Dec-02 00:19N 56°34' E 011°29'19 9.0
2014-Dec-01 22:12N 56°20' E 011°06'1012.0
2014-Dec-01 21:24N 56°10' E 011°06'1212.5
2014-Dec-01 20:27N 55°59' E 011°01'4711.2
2014-Dec-01 16:17N 55°12' E 011°06'1212.5
2014-Dec-01 15:20N 55°00' E 011°01'24 8.3
2014-Dec-01 12:29N 54°37' E 010°57'21 9.2
2014-Dec-01 10:14N 54°31' E 011°31'7 9.5
2014-Dec-01 09:33N 54°28' E 011°41'10 9.6
2014-Dec-01 08:32N 54°26' E 011°57'9 9.0
2014-Dec-01 07:33N 54°28' E 012°12'9 8.9
2014-Dec-01 06:34N 54°36' E 012°18'10 9.7
2014-Dec-01 05:33N 54°42' E 012°32'38 9.4
2014-Dec-01 01:29N 54°58' E 013°32'9 9.5
2014-Dec-01 00:33N 55°01' E 013°47'10 9.6
2014-Nov-30 23:33N 55°04' E 014°02'9 8.9
2014-Nov-30 22:33N 55°10' E 014°13'9 8.8
2014-Nov-30 21:33N 55°17' E 014°23'9 9.1
2014-Nov-30 20:33N 55°24' E 014°33'9 9.0
2014-Nov-30 19:33N 55°29' E 014°46'9 9.0
2014-Nov-30 18:33N 55°33' E 015°00'9 9.2
2014-Nov-30 17:32N 55°37' E 015°15'9 9.3
2014-Nov-30 16:33N 55°39' E 015°31'  

Dump ship's entire track history